createdAt,value
2017-10-24T00:00:17.031Z,14.7
2017-10-24T00:01:18.502Z,14.7
2017-10-24T00:02:19.980Z,14.7
2017-10-24T00:03:21.496Z,14.6
2017-10-24T00:04:23.027Z,14.7
2017-10-24T00:05:24.536Z,14.6
2017-10-24T00:06:26.033Z,14.6
2017-10-24T00:07:27.524Z,14.6
2017-10-24T00:08:29.069Z,14.6
2017-10-24T00:09:30.598Z,14.6
2017-10-24T00:10:32.121Z,14.6
2017-10-24T00:11:33.645Z,14.6
2017-10-24T00:12:35.171Z,14.5
2017-10-24T00:13:36.748Z,14.6
2017-10-24T00:14:38.264Z,14.6
2017-10-24T00:15:39.810Z,14.5
2017-10-24T00:16:41.381Z,14.5
2017-10-24T00:17:42.870Z,14.5
2017-10-24T00:18:44.392Z,14.5
2017-10-24T00:19:45.915Z,14.5
2017-10-24T00:20:47.455Z,14.6
2017-10-24T00:21:49.019Z,14.5
2017-10-24T00:22:50.538Z,14.6
2017-10-24T00:23:52.025Z,14.6
2017-10-24T00:24:53.497Z,14.5
2017-10-24T00:25:55.057Z,14.5
2017-10-24T00:26:56.532Z,14.5
2017-10-24T00:27:58.062Z,14.5
2017-10-24T00:28:59.554Z,14.6
2017-10-24T00:30:01.072Z,14.6
2017-10-24T00:31:02.597Z,14.6
2017-10-24T00:32:04.069Z,14.6
2017-10-24T00:33:05.571Z,14.6
2017-10-24T00:34:07.070Z,14.6
2017-10-24T00:35:08.568Z,14.5
2017-10-24T00:36:10.070Z,14.6
2017-10-24T00:37:11.599Z,14.5
2017-10-24T00:38:13.132Z,14.6
2017-10-24T00:39:14.678Z,14.7
2017-10-24T00:40:16.189Z,14.7
2017-10-24T00:41:17.711Z,14.6
2017-10-24T00:42:19.214Z,14.7
2017-10-24T00:43:20.692Z,14.7
2017-10-24T00:44:22.177Z,14.7
2017-10-24T00:45:23.678Z,14.7
2017-10-24T00:46:25.171Z,14.7
2017-10-24T00:47:26.668Z,14.7
2017-10-24T00:48:28.172Z,14.6
2017-10-24T00:49:29.690Z,14.6
2017-10-24T00:50:31.271Z,14.6
2017-10-24T00:51:32.768Z,14.6
2017-10-24T00:52:34.223Z,14.6
2017-10-24T00:53:35.676Z,14.7
2017-10-24T00:54:37.136Z,14.5
2017-10-24T00:55:38.580Z,14.7
2017-10-24T00:56:40.041Z,14.6
2017-10-24T00:57:41.475Z,14.7
2017-10-24T00:58:42.911Z,14.7
2017-10-24T00:59:44.390Z,14.7
2017-10-24T01:00:45.837Z,14.7
2017-10-24T01:01:47.337Z,14.7
2017-10-24T01:02:48.826Z,14.7
2017-10-24T01:03:50.304Z,14.7
2017-10-24T01:04:51.757Z,14.8
2017-10-24T01:05:53.193Z,14.7
2017-10-24T01:06:54.608Z,14.7
2017-10-24T01:07:56.019Z,14.7
2017-10-24T01:08:57.441Z,14.7
2017-10-24T01:09:58.859Z,14.7
2017-10-24T01:11:00.268Z,14.7
2017-10-24T01:12:01.816Z,14.7
2017-10-24T01:13:03.220Z,14.7
2017-10-24T01:14:04.652Z,14.7
2017-10-24T01:15:06.056Z,14.7
2017-10-24T01:16:07.477Z,14.7
2017-10-24T01:17:08.959Z,14.7
2017-10-24T01:18:10.506Z,14.7
2017-10-24T01:19:12.065Z,14.7
2017-10-24T01:20:13.575Z,14.7
2017-10-24T01:21:15.131Z,14.7
2017-10-24T01:22:16.635Z,14.7
2017-10-24T01:23:18.130Z,14.7
2017-10-24T01:24:19.641Z,14.7
2017-10-24T01:25:21.135Z,14.7
2017-10-24T01:26:22.692Z,14.7
2017-10-24T01:27:24.239Z,14.7
2017-10-24T01:28:25.777Z,14.7
2017-10-24T01:29:27.238Z,14.7
2017-10-24T01:30:28.764Z,14.7
2017-10-24T01:31:30.320Z,14.7
2017-10-24T01:32:31.852Z,14.7
2017-10-24T01:33:33.411Z,14.6
2017-10-24T01:34:34.950Z,14.7
2017-10-24T01:35:36.482Z,14.7
2017-10-24T01:36:37.980Z,14.7
2017-10-24T01:37:39.485Z,14.7
2017-10-24T01:38:41.017Z,14.5
2017-10-24T01:39:42.550Z,14.6
2017-10-24T01:40:44.063Z,14.6
2017-10-24T01:41:45.598Z,14.7
2017-10-24T01:42:47.156Z,14.7
2017-10-24T01:43:48.657Z,14.6
2017-10-24T01:44:50.168Z,14.6
2017-10-24T01:45:51.682Z,14.7
2017-10-24T01:46:53.239Z,14.7
2017-10-24T01:47:54.769Z,14.7
2017-10-24T01:48:56.279Z,14.7
2017-10-24T01:49:57.827Z,14.7
2017-10-24T01:50:59.342Z,14.7
2017-10-24T01:52:00.918Z,14.7
2017-10-24T01:53:02.458Z,14.7
2017-10-24T01:54:03.998Z,14.5
2017-10-24T01:55:05.510Z,14.7
2017-10-24T01:56:07.032Z,14.6
2017-10-24T01:57:08.544Z,14.5
2017-10-24T01:58:10.051Z,14.6
2017-10-24T01:59:11.582Z,14.6
2017-10-24T02:00:13.124Z,14.6
2017-10-24T02:01:14.638Z,14.7
2017-10-24T02:02:16.112Z,14.6
2017-10-24T02:03:17.653Z,14.7
2017-10-24T02:04:19.185Z,14.6
2017-10-24T02:05:20.702Z,14.6
2017-10-24T02:06:22.216Z,14.6
2017-10-24T02:07:23.761Z,14.5
2017-10-24T02:08:25.827Z,14.5
2017-10-24T02:09:27.376Z,14.6
2017-10-24T02:10:28.902Z,14.6
2017-10-24T02:11:30.422Z,14.6
2017-10-24T02:12:31.976Z,14.5
2017-10-24T02:13:33.521Z,14.5
2017-10-24T02:14:35.097Z,14.5
2017-10-24T02:15:36.602Z,14.6
2017-10-24T02:16:38.126Z,14.6
2017-10-24T02:17:39.655Z,14.5
2017-10-24T02:18:41.201Z,14.5
2017-10-24T02:19:42.717Z,14.5
2017-10-24T02:20:44.223Z,14.5
2017-10-24T02:21:45.706Z,14.5
2017-10-24T02:22:47.279Z,14.5
2017-10-24T02:23:48.807Z,14.5
2017-10-24T02:24:50.310Z,14.5
2017-10-24T02:25:51.826Z,14.6
2017-10-24T02:26:53.332Z,14.5
2017-10-24T02:27:54.832Z,14.5
2017-10-24T02:28:56.380Z,14.5
2017-10-24T02:29:57.878Z,14.5
2017-10-24T02:30:59.376Z,14.5
2017-10-24T02:32:00.883Z,14.5
2017-10-24T02:33:02.433Z,14.6
2017-10-24T02:34:03.977Z,14.4
2017-10-24T02:35:05.498Z,14.5
2017-10-24T02:36:07.045Z,14.5
2017-10-24T02:37:08.589Z,14.5
2017-10-24T02:38:10.123Z,14.5
2017-10-24T02:39:11.653Z,14.5
2017-10-24T02:40:13.164Z,14.5
2017-10-24T02:41:14.699Z,14.5
2017-10-24T02:42:16.238Z,14.5
2017-10-24T02:43:17.782Z,14.4
2017-10-24T02:44:19.286Z,14.4
2017-10-24T02:45:20.852Z,14.5
2017-10-24T02:46:22.360Z,14.4
2017-10-24T02:47:23.894Z,14.4
2017-10-24T02:48:25.409Z,14.4
2017-10-24T02:49:26.936Z,14.4
2017-10-24T02:50:28.473Z,14.4
2017-10-24T02:51:30.029Z,14.5
2017-10-24T02:52:32.352Z,14.4
2017-10-24T02:53:33.888Z,14.4
2017-10-24T02:54:35.423Z,14.4
2017-10-24T02:55:36.993Z,14.4
2017-10-24T02:56:38.512Z,14.4
2017-10-24T02:57:40.021Z,14.4
2017-10-24T02:58:41.577Z,14.4
2017-10-24T02:59:43.107Z,14.4
2017-10-24T03:00:44.660Z,14.4
2017-10-24T03:01:46.181Z,14.4
2017-10-24T03:02:47.720Z,14.4
2017-10-24T03:03:49.444Z,14.4
2017-10-24T03:04:50.974Z,14.4
2017-10-24T03:05:52.506Z,14.4
2017-10-24T03:06:54.037Z,14.4
2017-10-24T03:07:55.589Z,14.4
2017-10-24T03:08:57.175Z,14.4
2017-10-24T03:09:58.749Z,14.4
2017-10-24T03:11:00.274Z,14.3
2017-10-24T03:12:01.808Z,14.4
2017-10-24T03:13:03.301Z,14.4
2017-10-24T03:14:04.812Z,14.4
2017-10-24T03:15:06.330Z,14.4
2017-10-24T03:16:07.809Z,14.4
2017-10-24T03:17:09.369Z,14.4
2017-10-24T03:18:10.978Z,14.4
2017-10-24T03:19:12.525Z,14.4
2017-10-24T03:20:14.046Z,14.4
2017-10-24T03:21:15.650Z,14.4
2017-10-24T03:22:17.164Z,14.4
2017-10-24T03:23:18.704Z,14.4
2017-10-24T03:24:20.237Z,14.4
2017-10-24T03:25:21.776Z,14.4
2017-10-24T03:26:23.311Z,14.4
2017-10-24T03:27:24.830Z,14.4
2017-10-24T03:28:26.345Z,14.4
2017-10-24T03:29:27.852Z,14.4
2017-10-24T03:30:29.391Z,14.4
2017-10-24T03:31:30.925Z,14.4
2017-10-24T03:32:32.484Z,14.4
2017-10-24T03:33:34.070Z,14.3
2017-10-24T03:34:35.639Z,14.5
2017-10-24T03:35:37.204Z,14.4
2017-10-24T03:36:38.744Z,14.3
2017-10-24T03:37:40.296Z,14.4
2017-10-24T03:38:41.801Z,14.3
2017-10-24T03:39:43.319Z,14.4
2017-10-24T03:40:44.891Z,14.3
2017-10-24T03:41:46.427Z,14.4
2017-10-24T03:42:47.956Z,14.3
2017-10-24T03:43:49.486Z,14.3
2017-10-24T03:44:51.003Z,14.4
2017-10-24T03:45:52.547Z,14.3
2017-10-24T03:46:54.077Z,14.3
2017-10-24T03:47:55.674Z,14.3
2017-10-24T03:48:57.267Z,14.5
2017-10-24T03:49:58.793Z,14.3
2017-10-24T03:51:00.350Z,14.4
2017-10-24T03:52:02.070Z,14.4
2017-10-24T03:53:03.632Z,14.3
2017-10-24T03:54:05.165Z,14.4
2017-10-24T03:55:06.724Z,14.4
2017-10-24T03:56:08.247Z,14.4
2017-10-24T03:57:09.796Z,14.3
2017-10-24T03:58:11.377Z,14.3
2017-10-24T03:59:12.913Z,14.3
2017-10-24T04:00:14.393Z,14.3
2017-10-24T04:01:15.966Z,14.3
2017-10-24T04:02:17.507Z,14.4
2017-10-24T04:03:19.105Z,14.4
2017-10-24T04:04:20.612Z,14.4
2017-10-24T04:05:22.181Z,14.4
2017-10-24T04:06:23.747Z,14.3
2017-10-24T04:07:25.233Z,14.3
2017-10-24T04:08:26.766Z,14.4
2017-10-24T04:09:28.278Z,14.4
2017-10-24T04:10:29.779Z,14.4
2017-10-24T04:11:31.354Z,14.4
2017-10-24T04:12:32.946Z,14.3
2017-10-24T04:13:34.551Z,14.4
2017-10-24T04:14:36.059Z,14.4
2017-10-24T04:15:37.688Z,14.4
2017-10-24T04:16:39.280Z,14.4
2017-10-24T04:17:40.890Z,14.4
2017-10-24T04:18:42.487Z,14.4
2017-10-24T04:19:44.147Z,14.4
2017-10-24T04:20:45.770Z,14.3
2017-10-24T04:21:47.370Z,14.3
2017-10-24T04:22:48.999Z,14.4
2017-10-24T04:23:50.638Z,14.4
2017-10-24T04:24:52.228Z,14.4
2017-10-24T04:25:53.833Z,14.3
2017-10-24T04:26:55.396Z,14.4
2017-10-24T04:27:56.943Z,14.4
2017-10-24T04:28:58.577Z,14.4
2017-10-24T04:30:00.187Z,14.4
2017-10-24T04:31:01.833Z,14.4
2017-10-24T04:32:03.431Z,14.3
2017-10-24T04:33:05.032Z,14.4
2017-10-24T04:34:06.570Z,14.4
2017-10-24T04:35:08.148Z,14.4
2017-10-24T04:36:09.676Z,14.3
2017-10-24T04:37:11.212Z,14.4
2017-10-24T04:38:12.748Z,14.3
2017-10-24T04:39:14.242Z,14.3
2017-10-24T04:40:16.043Z,14.3
2017-10-24T04:41:17.708Z,14.4
2017-10-24T04:42:19.383Z,14.4
2017-10-24T04:43:20.976Z,14.4
2017-10-24T04:44:22.631Z,14.4
2017-10-24T04:45:24.229Z,14.3
2017-10-24T04:46:25.867Z,14.4
2017-10-24T04:47:27.453Z,14.4
2017-10-24T04:48:29.079Z,14.3
2017-10-24T04:49:30.681Z,14.4
2017-10-24T04:50:32.176Z,14.4
2017-10-24T04:51:33.772Z,14.4
2017-10-24T04:52:35.222Z,14.4
2017-10-24T04:53:36.670Z,14.4
2017-10-24T04:54:38.205Z,14.4
2017-10-24T04:55:39.735Z,14.5
2017-10-24T04:56:41.175Z,14.4
2017-10-24T04:57:42.686Z,14.4
2017-10-24T04:58:44.205Z,14.4
2017-10-24T04:59:45.735Z,14.4
2017-10-24T05:00:47.243Z,14.4
2017-10-24T05:01:48.709Z,14.4
2017-10-24T05:02:50.173Z,14.5
2017-10-24T05:03:51.652Z,14.4
2017-10-24T05:04:53.199Z,14.4
2017-10-24T05:05:54.723Z,14.4
2017-10-24T05:06:56.206Z,14.4
2017-10-24T05:07:57.691Z,14.4
2017-10-24T05:08:59.215Z,14.4
2017-10-24T05:10:00.800Z,14.5
2017-10-24T05:11:02.381Z,14.5
2017-10-24T05:12:04.003Z,14.5
2017-10-24T05:13:05.582Z,14.5
2017-10-24T05:14:07.108Z,14.5
2017-10-24T05:15:08.879Z,14.5
2017-10-24T05:16:10.508Z,14.4
2017-10-24T05:17:12.096Z,14.5
2017-10-24T05:18:13.713Z,14.5
2017-10-24T05:19:15.265Z,14.5
2017-10-24T05:20:16.844Z,14.5
2017-10-24T05:21:18.477Z,14.5
2017-10-24T05:22:20.069Z,14.4
2017-10-24T05:23:21.672Z,14.5
2017-10-24T05:24:23.294Z,14.5
2017-10-24T05:25:24.805Z,14.5
2017-10-24T05:26:26.378Z,14.5
2017-10-24T05:27:27.971Z,14.5
2017-10-24T05:28:29.549Z,14.4
2017-10-24T05:29:31.160Z,14.5
2017-10-24T05:30:32.747Z,14.5
2017-10-24T05:31:34.349Z,14.4
2017-10-24T05:32:35.874Z,14.5
2017-10-24T05:33:37.477Z,14.4
2017-10-24T05:34:39.039Z,14.4
2017-10-24T05:35:40.681Z,14.5
2017-10-24T05:36:42.269Z,14.5
2017-10-24T05:37:43.849Z,14.5
2017-10-24T05:38:45.430Z,14.5
2017-10-24T05:39:46.963Z,14.6
2017-10-24T05:40:48.558Z,14.4
2017-10-24T05:41:50.275Z,14.6
2017-10-24T05:42:51.871Z,14.5
2017-10-24T05:43:53.479Z,14.5
2017-10-24T05:44:55.140Z,14.5
2017-10-24T05:45:56.715Z,14.5
2017-10-24T05:46:58.288Z,14.5
2017-10-24T05:47:59.790Z,14.5
2017-10-24T05:49:01.351Z,14.4
2017-10-24T05:50:02.889Z,14.4
2017-10-24T05:51:04.386Z,14.3
2017-10-24T05:52:05.950Z,14.4
2017-10-24T05:53:07.492Z,14.4
2017-10-24T05:54:09.131Z,14.5
2017-10-24T05:55:10.690Z,14.5
2017-10-24T05:56:12.240Z,14.4
2017-10-24T05:57:13.818Z,14.5
2017-10-24T05:58:15.372Z,14.5
2017-10-24T05:59:16.959Z,14.4
2017-10-24T06:00:18.638Z,14.5
2017-10-24T06:01:20.252Z,14.4
2017-10-24T06:02:21.776Z,14.5
2017-10-24T06:03:23.266Z,14.5
2017-10-24T06:04:24.803Z,14.5
2017-10-24T06:05:26.330Z,14.5
2017-10-24T06:06:28.021Z,14.4
2017-10-24T06:07:29.665Z,14.3
2017-10-24T06:08:31.280Z,14.4
2017-10-24T06:09:32.923Z,14.5
2017-10-24T06:10:34.495Z,14.5
2017-10-24T06:11:36.134Z,14.5
2017-10-24T06:12:37.745Z,14.4
2017-10-24T06:13:39.263Z,14.5
2017-10-24T06:14:40.889Z,14.5
2017-10-24T06:15:42.471Z,14.5
2017-10-24T06:16:44.100Z,14.4
2017-10-24T06:17:45.614Z,14.5
2017-10-24T06:18:47.209Z,14.5
2017-10-24T06:19:48.793Z,14.5
2017-10-24T06:20:50.350Z,14.5
2017-10-24T06:21:51.891Z,14.5
2017-10-24T06:22:53.434Z,14.5
2017-10-24T06:23:54.938Z,14.5
2017-10-24T06:24:56.475Z,14.5
2017-10-24T06:25:58.036Z,14.5
2017-10-24T06:26:59.615Z,14.5
2017-10-24T06:28:01.159Z,14.5
2017-10-24T06:29:02.801Z,14.5
2017-10-24T06:30:04.383Z,14.4
2017-10-24T06:31:05.980Z,14.5
2017-10-24T06:32:07.591Z,14.5
2017-10-24T06:33:09.159Z,14.5
2017-10-24T06:34:10.672Z,14.6
2017-10-24T06:35:12.171Z,14.5
2017-10-24T06:36:13.765Z,14.5
2017-10-24T06:37:15.249Z,14.4
2017-10-24T06:38:16.752Z,14.6
2017-10-24T06:39:18.251Z,14.5
2017-10-24T06:40:19.768Z,14.5
2017-10-24T06:41:21.254Z,14.5
2017-10-24T06:42:22.765Z,14.6
2017-10-24T06:43:24.216Z,14.5
2017-10-24T06:44:25.663Z,14.6
2017-10-24T06:45:27.180Z,14.6
2017-10-24T06:46:28.644Z,14.6
2017-10-24T06:47:30.149Z,14.7
2017-10-24T06:48:31.648Z,14.7
2017-10-24T06:49:33.153Z,14.7
2017-10-24T06:50:34.658Z,14.7
2017-10-24T06:51:36.118Z,14.7
2017-10-24T06:52:37.601Z,14.7
2017-10-24T06:53:39.054Z,14.7
2017-10-24T06:54:40.529Z,14.7
2017-10-24T06:55:42.038Z,14.7
2017-10-24T06:56:43.498Z,14.7
2017-10-24T06:57:44.974Z,14.7
2017-10-24T06:58:46.436Z,14.7
2017-10-24T06:59:47.906Z,14.7
2017-10-24T07:00:49.366Z,14.7
2017-10-24T07:01:50.924Z,14.7
2017-10-24T07:02:52.432Z,14.7
2017-10-24T07:03:53.935Z,14.7
2017-10-24T07:04:55.414Z,14.7
2017-10-24T07:05:56.913Z,14.7
2017-10-24T07:06:58.368Z,14.7
2017-10-24T07:07:59.846Z,14.7
2017-10-24T07:09:01.318Z,14.7
2017-10-24T07:10:02.946Z,14.7
2017-10-24T07:11:04.425Z,14.7
2017-10-24T07:12:05.877Z,14.7
2017-10-24T07:13:07.339Z,14.7
2017-10-24T07:14:08.820Z,14.7
2017-10-24T07:15:10.309Z,14.7
2017-10-24T07:16:11.784Z,14.7
2017-10-24T07:17:13.238Z,14.9
2017-10-24T07:18:14.745Z,14.8
2017-10-24T07:19:16.226Z,14.9
2017-10-24T07:20:17.704Z,14.9
2017-10-24T07:21:19.156Z,14.8
2017-10-24T07:22:20.596Z,14.7
2017-10-24T07:23:22.164Z,14.9
2017-10-24T07:24:24.437Z,14.8
2017-10-24T07:25:25.882Z,14.8
2017-10-24T07:26:27.421Z,14.9
2017-10-24T07:27:28.917Z,14.9
2017-10-24T07:28:30.450Z,14.9
2017-10-24T07:29:31.965Z,14.9
2017-10-24T07:30:33.517Z,14.9
2017-10-24T07:31:35.002Z,14.9
2017-10-24T07:32:36.536Z,14.9
2017-10-24T07:33:38.074Z,14.9
2017-10-24T07:34:40.385Z,14.9
2017-10-24T07:35:41.887Z,14.9
2017-10-24T07:36:43.397Z,15.0
2017-10-24T07:37:44.907Z,15.0
2017-10-24T07:38:46.375Z,14.9
2017-10-24T07:39:47.866Z,14.9
2017-10-24T07:40:49.347Z,15.0
2017-10-24T07:41:50.826Z,14.9
2017-10-24T07:42:52.328Z,15.0
2017-10-24T07:43:53.780Z,14.9
2017-10-24T07:44:55.274Z,15.0
2017-10-24T07:45:56.788Z,15.1
2017-10-24T07:46:58.255Z,15.1
2017-10-24T07:47:59.737Z,15.0
2017-10-24T07:49:01.212Z,15.1
2017-10-24T07:50:02.657Z,15.1
2017-10-24T07:51:04.151Z,15.0
2017-10-24T07:52:05.614Z,15.0
2017-10-24T07:53:07.135Z,15.1
2017-10-24T07:54:08.828Z,15.1
2017-10-24T07:55:10.372Z,15.0
2017-10-24T07:56:11.827Z,15.1
2017-10-24T07:57:13.307Z,15.1
2017-10-24T07:58:14.800Z,15.1
2017-10-24T07:59:16.281Z,15.1
2017-10-24T08:00:17.755Z,15.1
2017-10-24T08:01:19.245Z,15.1
2017-10-24T08:02:20.758Z,15.1
2017-10-24T08:03:22.219Z,15.1
2017-10-24T08:04:23.729Z,15.1
2017-10-24T08:05:25.210Z,15.2
2017-10-24T08:06:26.689Z,15.2
2017-10-24T08:07:28.171Z,15.2
2017-10-24T08:08:29.665Z,15.1
2017-10-24T08:09:31.902Z,15.2
2017-10-24T08:10:33.405Z,15.2
2017-10-24T08:11:34.905Z,15.2
2017-10-24T08:12:36.415Z,15.2
2017-10-24T08:13:37.908Z,15.2
2017-10-24T08:14:39.399Z,15.2
2017-10-24T08:15:40.899Z,15.2
2017-10-24T08:16:42.324Z,15.2
2017-10-24T08:17:43.754Z,15.3
2017-10-24T08:18:45.182Z,15.1
2017-10-24T08:19:46.618Z,15.2
2017-10-24T08:20:48.048Z,15.3
2017-10-24T08:21:49.452Z,15.3
2017-10-24T08:22:50.850Z,15.3
2017-10-24T08:23:52.252Z,15.3
2017-10-24T08:24:53.658Z,15.3
2017-10-24T08:25:55.089Z,15.4
2017-10-24T08:26:56.490Z,15.4
2017-10-24T08:27:57.921Z,15.4
2017-10-24T08:28:59.321Z,15.3
2017-10-24T08:30:00.728Z,15.4
2017-10-24T08:31:02.143Z,15.4
2017-10-24T08:32:03.550Z,15.4
2017-10-24T08:33:04.963Z,15.4
2017-10-24T08:34:06.380Z,15.4
2017-10-24T08:35:07.782Z,15.4
2017-10-24T08:36:09.180Z,15.4
2017-10-24T08:37:10.581Z,15.4
2017-10-24T08:38:11.984Z,15.4
2017-10-24T08:39:13.398Z,15.5
2017-10-24T08:40:14.802Z,15.5
2017-10-24T08:41:16.207Z,15.5
2017-10-24T08:42:17.621Z,15.4
2017-10-24T08:43:19.036Z,15.5
2017-10-24T08:44:21.327Z,15.5
2017-10-24T08:45:22.726Z,15.5
2017-10-24T08:46:24.133Z,15.6
2017-10-24T08:47:25.541Z,15.6
2017-10-24T08:48:26.938Z,15.6
2017-10-24T08:49:28.351Z,15.6
2017-10-24T08:50:29.747Z,15.7
2017-10-24T08:51:31.148Z,15.7
2017-10-24T08:52:32.613Z,15.7
2017-10-24T08:53:34.017Z,15.7
2017-10-24T08:54:35.420Z,15.7
2017-10-24T08:55:36.820Z,15.7
2017-10-24T08:56:38.229Z,15.7
2017-10-24T08:57:39.633Z,15.7
2017-10-24T08:58:41.042Z,15.7
2017-10-24T08:59:42.463Z,15.7
2017-10-24T09:00:43.864Z,15.8
2017-10-24T09:01:45.312Z,15.9
2017-10-24T09:02:46.687Z,15.8
2017-10-24T09:03:48.105Z,15.9
2017-10-24T09:04:49.525Z,15.9
2017-10-24T09:05:50.926Z,15.9
2017-10-24T09:06:52.335Z,15.8
2017-10-24T09:07:53.744Z,15.9
2017-10-24T09:08:55.145Z,15.9
2017-10-24T09:09:56.563Z,16.0
2017-10-24T09:10:57.971Z,15.9
2017-10-24T09:11:59.375Z,15.9
2017-10-24T09:13:00.776Z,15.9
2017-10-24T09:14:02.186Z,15.9
2017-10-24T09:15:03.589Z,15.9
2017-10-24T09:16:04.991Z,16.0
2017-10-24T09:17:06.406Z,16.0
2017-10-24T09:18:07.821Z,16.0
2017-10-24T09:19:09.234Z,15.9
2017-10-24T09:20:10.638Z,15.9
2017-10-24T09:21:12.047Z,16.0
2017-10-24T09:22:13.454Z,16.0
2017-10-24T09:23:14.869Z,16.0
2017-10-24T09:24:16.280Z,16.0
2017-10-24T09:25:17.699Z,16.1
2017-10-24T09:26:19.100Z,16.1
2017-10-24T09:27:20.511Z,16.1
2017-10-24T09:28:21.921Z,16.1
2017-10-24T09:29:24.839Z,16.2
2017-10-24T09:30:26.241Z,16.2
2017-10-24T09:31:27.650Z,16.2
2017-10-24T09:32:29.057Z,16.1
2017-10-24T09:33:30.469Z,16.2
2017-10-24T09:34:31.876Z,16.3
2017-10-24T09:35:33.295Z,16.3
2017-10-24T09:36:34.706Z,16.3
2017-10-24T09:37:36.116Z,16.3
2017-10-24T09:38:37.528Z,16.4
2017-10-24T09:39:38.935Z,16.4
2017-10-24T09:40:40.343Z,16.5
2017-10-24T09:41:41.752Z,16.5
2017-10-24T09:42:43.153Z,16.4
2017-10-24T09:43:44.563Z,16.4
2017-10-24T09:44:45.968Z,16.4
2017-10-24T09:45:47.374Z,16.5
2017-10-24T09:46:48.785Z,16.4
2017-10-24T09:47:50.193Z,16.5
2017-10-24T09:48:51.607Z,16.5
2017-10-24T09:49:53.005Z,16.5
2017-10-24T09:50:54.425Z,16.4
2017-10-24T09:51:55.833Z,16.4
2017-10-24T09:52:57.238Z,16.5
2017-10-24T09:53:58.661Z,16.6
2017-10-24T09:55:00.074Z,16.5
2017-10-24T09:56:01.475Z,16.5
2017-10-24T09:57:02.882Z,16.6
2017-10-24T09:58:04.576Z,16.6
2017-10-24T09:59:05.987Z,16.6
2017-10-24T10:00:07.411Z,16.6
2017-10-24T10:01:08.824Z,16.5
2017-10-24T10:02:10.240Z,16.5
2017-10-24T10:03:11.643Z,16.6
2017-10-24T10:04:13.059Z,16.6
2017-10-24T10:05:14.454Z,16.6
2017-10-24T10:06:15.873Z,16.6
2017-10-24T10:07:17.307Z,16.6
2017-10-24T10:08:18.740Z,16.6
2017-10-24T10:09:20.141Z,16.7
2017-10-24T10:10:21.552Z,16.7
2017-10-24T10:11:22.974Z,16.7
2017-10-24T10:12:24.378Z,16.7
2017-10-24T10:13:25.793Z,16.8
2017-10-24T10:14:27.210Z,16.7
2017-10-24T10:15:28.627Z,16.8
2017-10-24T10:16:30.048Z,16.8
2017-10-24T10:17:31.445Z,16.8
2017-10-24T10:18:32.868Z,16.9
2017-10-24T10:19:34.276Z,17.0
2017-10-24T10:20:35.698Z,17.0
2017-10-24T10:21:37.101Z,17.0
2017-10-24T10:22:38.514Z,17.1
2017-10-24T10:23:39.937Z,17.0
2017-10-24T10:24:41.386Z,17.1
2017-10-24T10:25:42.793Z,17.2
2017-10-24T10:26:44.213Z,17.1
2017-10-24T10:27:45.614Z,17.1
2017-10-24T10:28:47.030Z,17.1
2017-10-24T10:29:48.433Z,17.1
2017-10-24T10:30:49.837Z,17.1
2017-10-24T10:31:51.243Z,17.1
2017-10-24T10:32:52.656Z,17.2
2017-10-24T10:33:54.057Z,17.1
2017-10-24T10:34:55.464Z,17.1
2017-10-24T10:35:56.872Z,17.1
2017-10-24T10:36:58.291Z,17.1
2017-10-24T10:37:59.724Z,17.1
2017-10-24T10:39:01.135Z,17.1
2017-10-24T10:40:02.535Z,17.1
2017-10-24T10:41:03.957Z,17.1
2017-10-24T10:42:05.374Z,17.1
2017-10-24T10:43:06.800Z,17.1
2017-10-24T10:44:08.212Z,17.1
2017-10-24T10:45:09.625Z,17.1
2017-10-24T10:46:11.031Z,17.1
2017-10-24T10:47:12.454Z,17.0
2017-10-24T10:48:13.865Z,17.1
2017-10-24T10:49:15.383Z,17.1
2017-10-24T10:50:16.793Z,17.0
2017-10-24T10:51:18.206Z,17.0
2017-10-24T10:52:19.607Z,16.9
2017-10-24T10:53:21.008Z,16.9
2017-10-24T10:54:22.424Z,16.9
2017-10-24T10:55:23.830Z,16.9
2017-10-24T10:56:25.243Z,16.9
2017-10-24T10:57:26.652Z,17.0
2017-10-24T10:58:28.063Z,16.9
2017-10-24T10:59:29.465Z,16.8
2017-10-24T11:00:30.869Z,16.9
2017-10-24T11:01:32.280Z,16.9
2017-10-24T11:02:33.680Z,16.9
2017-10-24T11:03:35.087Z,16.8
2017-10-24T11:04:36.492Z,16.9
2017-10-24T11:05:37.901Z,16.9
2017-10-24T11:06:39.299Z,16.8
2017-10-24T11:07:40.703Z,17.0
2017-10-24T11:08:42.106Z,16.9
2017-10-24T11:09:43.518Z,16.8
2017-10-24T11:10:44.927Z,16.8
2017-10-24T11:11:46.368Z,16.9
2017-10-24T11:12:47.785Z,16.9
2017-10-24T11:13:49.199Z,16.9
2017-10-24T11:14:50.605Z,16.9
2017-10-24T11:15:52.034Z,17.0
2017-10-24T11:16:53.468Z,16.9
2017-10-24T11:17:54.882Z,16.8
2017-10-24T11:18:56.295Z,16.8
2017-10-24T11:19:57.703Z,16.9
2017-10-24T11:20:59.115Z,16.9
2017-10-24T11:22:00.532Z,16.9
2017-10-24T11:23:01.936Z,16.9
2017-10-24T11:24:03.360Z,16.9
2017-10-24T11:25:04.980Z,17.0
2017-10-24T11:26:06.378Z,16.9
2017-10-24T11:27:07.798Z,16.9
2017-10-24T11:28:09.198Z,17.0
2017-10-24T11:29:10.600Z,16.9
2017-10-24T11:30:12.001Z,16.9
2017-10-24T11:31:15.205Z,16.9
2017-10-24T11:32:16.433Z,16.8
2017-10-24T11:33:17.836Z,16.9
2017-10-24T11:34:19.291Z,16.9
2017-10-24T11:35:20.715Z,16.9
2017-10-24T11:36:22.119Z,16.9
2017-10-24T11:37:23.517Z,16.9
2017-10-24T11:38:24.922Z,17.0
2017-10-24T11:39:26.337Z,16.9
2017-10-24T11:40:27.756Z,16.9
2017-10-24T11:41:29.164Z,17.0
2017-10-24T11:42:30.565Z,16.9
2017-10-24T11:43:31.969Z,17.0
2017-10-24T11:44:33.369Z,17.0
2017-10-24T11:45:34.775Z,17.0
2017-10-24T11:46:36.177Z,17.1
2017-10-24T11:47:37.581Z,17.1
2017-10-24T11:48:38.987Z,17.2
2017-10-24T11:49:40.397Z,17.1
2017-10-24T11:50:41.831Z,17.1
2017-10-24T11:51:43.235Z,17.1
2017-10-24T11:52:44.661Z,17.1
2017-10-24T11:53:46.070Z,17.1
2017-10-24T11:54:47.487Z,17.2
2017-10-24T11:55:48.892Z,17.2
2017-10-24T11:56:50.532Z,17.2
2017-10-24T11:57:51.941Z,17.2
2017-10-24T11:58:53.347Z,17.2
2017-10-24T11:59:54.753Z,17.2
2017-10-24T12:00:56.163Z,17.2
2017-10-24T12:01:57.567Z,17.2
2017-10-24T12:02:58.975Z,17.2
2017-10-24T12:04:00.382Z,17.3
2017-10-24T12:05:01.792Z,17.2
2017-10-24T12:06:03.196Z,17.2
2017-10-24T12:07:04.602Z,17.2
2017-10-24T12:08:06.008Z,17.2
2017-10-24T12:09:07.413Z,17.1
2017-10-24T12:10:08.835Z,17.1
2017-10-24T12:11:10.243Z,17.1
2017-10-24T12:12:11.645Z,17.1
2017-10-24T12:13:13.054Z,17.1
2017-10-24T12:14:14.469Z,17.2
2017-10-24T12:15:15.881Z,17.1
2017-10-24T12:16:17.383Z,17.2
2017-10-24T12:17:18.771Z,17.1
2017-10-24T12:18:20.179Z,17.1
2017-10-24T12:19:21.590Z,17.2
2017-10-24T12:20:23.022Z,17.2
2017-10-24T12:21:24.444Z,17.1
2017-10-24T12:22:25.851Z,17.1
2017-10-24T12:23:27.263Z,17.1
2017-10-24T12:24:28.674Z,17.1
2017-10-24T12:25:30.096Z,17.1
2017-10-24T12:26:31.497Z,17.1
2017-10-24T12:27:32.912Z,17.2
2017-10-24T12:28:34.313Z,17.1
2017-10-24T12:29:35.717Z,17.1
2017-10-24T12:30:37.126Z,17.1
2017-10-24T12:31:38.545Z,17.1
2017-10-24T12:32:39.948Z,17.0
2017-10-24T12:33:41.359Z,17.0
2017-10-24T12:34:42.762Z,17.0
2017-10-24T12:35:44.216Z,17.0
2017-10-24T12:36:45.630Z,17.0
2017-10-24T12:37:47.034Z,17.1
2017-10-24T12:38:48.440Z,17.0
2017-10-24T12:39:49.844Z,17.1
2017-10-24T12:40:51.315Z,17.1
2017-10-24T12:41:53.467Z,17.1
2017-10-24T12:42:54.888Z,17.0
2017-10-24T12:43:56.286Z,17.1
2017-10-24T12:44:57.696Z,17.1
2017-10-24T12:45:59.125Z,17.1
2017-10-24T12:47:00.536Z,17.1
2017-10-24T12:48:01.943Z,17.1
2017-10-24T12:49:03.348Z,17.1
2017-10-24T12:50:04.765Z,17.1
2017-10-24T12:51:06.155Z,17.2
2017-10-24T12:52:07.585Z,17.1
2017-10-24T12:53:08.991Z,17.1
2017-10-24T12:54:10.394Z,17.2
2017-10-24T12:55:11.799Z,17.1
2017-10-24T12:56:13.205Z,17.1
2017-10-24T12:57:14.633Z,17.1
2017-10-24T12:58:16.030Z,17.2
2017-10-24T12:59:17.446Z,17.1
2017-10-24T13:00:18.870Z,17.1
2017-10-24T13:01:20.263Z,17.1
2017-10-24T13:02:21.671Z,17.1
2017-10-24T13:03:23.082Z,17.1
2017-10-24T13:04:24.485Z,17.1
2017-10-24T13:05:25.902Z,17.2
2017-10-24T13:06:27.307Z,17.1
2017-10-24T13:07:28.718Z,17.1
2017-10-24T13:08:30.119Z,17.2
2017-10-24T13:09:31.529Z,17.2
2017-10-24T13:10:32.941Z,17.2
2017-10-24T13:11:34.347Z,17.2
2017-10-24T13:12:35.753Z,17.2
2017-10-24T13:13:37.185Z,17.2
2017-10-24T13:14:38.590Z,17.2
2017-10-24T13:15:39.992Z,17.2
2017-10-24T13:16:41.394Z,17.2
2017-10-24T13:17:42.810Z,17.3
2017-10-24T13:18:44.229Z,17.3
2017-10-24T13:19:45.639Z,17.3
2017-10-24T13:20:47.041Z,17.3
2017-10-24T13:21:48.452Z,17.3
2017-10-24T13:22:49.857Z,17.3
2017-10-24T13:23:51.260Z,17.3
2017-10-24T13:24:52.668Z,17.3
2017-10-24T13:25:54.070Z,17.4
2017-10-24T13:26:55.480Z,17.3
2017-10-24T13:27:56.889Z,17.3
2017-10-24T13:28:58.292Z,17.4
2017-10-24T13:29:59.695Z,17.4
2017-10-24T13:31:01.099Z,17.3
2017-10-24T13:32:02.501Z,17.4
2017-10-24T13:33:03.918Z,17.3
2017-10-24T13:34:05.322Z,17.4
2017-10-24T13:35:06.727Z,17.4
2017-10-24T13:36:08.136Z,17.4
2017-10-24T13:37:09.540Z,17.4
2017-10-24T13:38:10.961Z,17.4